createdAt,value
2022-12-20T00:02:17.931Z,100599.22
2022-12-20T00:06:19.963Z,100600.25
2022-12-20T00:10:21.803Z,100589.38
2022-12-20T00:14:23.595Z,100587.19
2022-12-20T00:18:25.367Z,100566.09
2022-12-20T00:22:27.143Z,100553.50
2022-12-20T00:26:30.803Z,100539.31
2022-12-20T00:30:32.579Z,100566.84
2022-12-20T00:34:34.391Z,100582.44
2022-12-20T00:38:36.394Z,100591.19
2022-12-20T00:42:38.208Z,100568.78
2022-12-20T00:46:40.059Z,100560.84
2022-12-20T00:50:41.897Z,100563.59
2022-12-20T00:54:43.747Z,100550.03
2022-12-20T00:58:45.566Z,100559.81
2022-12-20T01:02:47.690Z,100551.25
2022-12-20T01:06:49.701Z,100540.44
2022-12-20T01:11:17.842Z,100526.25
2022-12-20T01:15:19.985Z,100545.59
2022-12-20T01:19:21.859Z,100538.19
2022-12-20T01:23:23.669Z,100513.59
2022-12-20T01:27:25.441Z,100530.81
2022-12-20T01:31:28.064Z,100551.53
2022-12-20T01:35:29.898Z,100535.84
2022-12-20T01:39:31.729Z,100525.69
2022-12-20T01:43:57.691Z,100531.72
2022-12-20T01:47:59.491Z,100542.03
2022-12-20T01:52:31.094Z,100510.53
2022-12-20T01:56:32.947Z,100521.16
2022-12-20T02:00:34.805Z,100519.69
2022-12-20T02:04:36.726Z,100510.97
2022-12-20T02:08:38.518Z,100514.34
2022-12-20T02:12:41.788Z,100508.78
2022-12-20T02:17:23.152Z,100525.38
2022-12-20T02:21:29.115Z,100496.91
2022-12-20T02:25:42.947Z,100510.22
2022-12-20T02:30:21.231Z,100500.78
2022-12-20T02:34:25.066Z,100511.59
2022-12-20T02:38:36.211Z,100525.31
2022-12-20T02:42:38.065Z,100512.44
2022-12-20T02:46:39.889Z,100522.50
2022-12-20T02:50:49.516Z,100511.22
2022-12-20T02:54:51.299Z,100520.75
2022-12-20T02:59:09.305Z,100494.31
2022-12-20T03:03:29.155Z,100493.59
2022-12-20T03:07:31.022Z,100498.34
2022-12-20T03:11:40.040Z,100486.25
2022-12-20T03:15:48.033Z,100482.44
2022-12-20T03:19:56.061Z,100477.88
2022-12-20T03:24:11.040Z,100484.09
2022-12-20T03:28:13.016Z,100485.50
2022-12-20T03:32:15.389Z,100487.38
2022-12-20T03:36:17.277Z,100488.72
2022-12-20T03:40:19.313Z,100477.63
2022-12-20T03:44:23.306Z,100486.38
2022-12-20T03:48:25.144Z,100485.94
2022-12-20T03:52:27.004Z,100474.69
2022-12-20T03:56:28.767Z,100460.47
2022-12-20T04:00:30.580Z,100475.41
2022-12-20T04:04:32.597Z,100489.00
2022-12-20T04:08:34.418Z,100463.56
2022-12-20T04:12:36.225Z,100466.06
2022-12-20T04:16:38.246Z,100474.31
2022-12-20T04:20:40.220Z,100475.72
2022-12-20T04:24:42.014Z,100474.47
2022-12-20T04:28:43.840Z,100469.84
2022-12-20T04:32:45.730Z,100464.06
2022-12-20T04:36:47.696Z,100467.41
2022-12-20T04:40:50.507Z,100459.75
2022-12-20T04:44:52.363Z,100470.50
2022-12-20T04:48:57.839Z,100457.72
2022-12-20T04:53:18.960Z,100463.81
2022-12-20T04:57:20.766Z,100458.84
2022-12-20T05:01:22.995Z,100449.25
2022-12-20T05:05:25.164Z,100449.09
2022-12-20T05:09:27.043Z,100443.28
2022-12-20T05:13:28.981Z,100430.59
2022-12-20T05:17:30.753Z,100444.31
2022-12-20T05:21:51.010Z,100435.59
2022-12-20T05:26:12.050Z,100440.28
2022-12-20T05:30:14.108Z,100418.81
2022-12-20T05:34:16.018Z,100432.22
2022-12-20T05:38:17.807Z,100438.63
2022-12-20T05:42:19.636Z,100425.47
2022-12-20T05:46:21.574Z,100414.97
2022-12-20T05:50:23.564Z,100419.56
2022-12-20T05:54:25.653Z,100414.25
2022-12-20T05:58:27.831Z,100424.59
2022-12-20T06:02:31.186Z,100413.31
2022-12-20T06:06:33.664Z,100411.28
2022-12-20T06:10:42.942Z,100399.34
2022-12-20T06:14:44.879Z,100392.47
2022-12-20T06:18:47.259Z,100399.41
2022-12-20T06:22:49.363Z,100410.50
2022-12-20T06:26:52.138Z,100417.81
2022-12-20T06:30:57.942Z,100411.38
2022-12-20T06:34:59.891Z,100393.56
2022-12-20T06:39:09.230Z,100396.22
2022-12-20T06:43:11.820Z,100411.59
2022-12-20T06:47:16.846Z,100403.44
2022-12-20T06:51:19.165Z,100409.44
2022-12-20T06:55:21.410Z,100417.09
2022-12-20T06:59:23.486Z,100423.00
2022-12-20T07:03:28.317Z,100417.09
2022-12-20T07:07:30.872Z,100415.75
2022-12-20T07:11:32.761Z,100421.88
2022-12-20T07:15:35.240Z,100421.59
2022-12-20T07:19:37.288Z,100414.41
2022-12-20T07:23:39.133Z,100398.69
2022-12-20T07:27:41.339Z,100400.34
2022-12-20T07:31:43.254Z,100389.72
2022-12-20T07:35:50.946Z,100400.03
2022-12-20T07:39:56.202Z,100384.59
2022-12-20T07:43:59.380Z,100405.69
2022-12-20T07:48:08.664Z,100380.34
2022-12-20T07:52:13.075Z,100389.41
2022-12-20T07:56:14.940Z,100393.31
2022-12-20T08:00:18.757Z,100390.59
2022-12-20T08:04:26.385Z,100432.16
2022-12-20T08:08:28.237Z,100412.38
2022-12-20T08:12:30.067Z,100415.03
2022-12-20T08:16:31.886Z,100413.00
2022-12-20T08:20:33.876Z,100407.56
2022-12-20T08:24:35.956Z,100406.66
2022-12-20T08:28:37.947Z,100390.00
2022-12-20T08:32:39.721Z,100386.09
2022-12-20T08:36:41.533Z,100408.41
2022-12-20T08:40:43.311Z,100415.59
2022-12-20T08:44:45.425Z,100397.00
2022-12-20T08:48:47.255Z,100392.25
2022-12-20T08:52:49.106Z,100397.91
2022-12-20T08:56:50.962Z,100400.06
2022-12-20T09:00:52.814Z,100411.13
2022-12-20T09:04:54.711Z,100405.50
2022-12-20T09:08:56.581Z,100401.91
2022-12-20T09:12:58.510Z,100396.22
2022-12-20T09:17:00.350Z,100400.41
2022-12-20T09:21:03.780Z,100405.41
2022-12-20T09:25:07.217Z,100404.41
2022-12-20T09:29:09.244Z,100412.06
2022-12-20T09:33:11.148Z,100409.41
2022-12-20T09:37:12.913Z,100403.41
2022-12-20T09:41:43.019Z,100411.88
2022-12-20T09:45:47.160Z,100397.63
2022-12-20T09:49:53.368Z,100410.22
2022-12-20T09:54:13.972Z,100429.69
2022-12-20T09:58:37.782Z,100408.94
2022-12-20T10:03:01.917Z,100410.22
2022-12-20T10:07:45.828Z,100427.59
2022-12-20T10:12:13.636Z,100430.75
2022-12-20T10:16:48.119Z,100416.94
2022-12-20T10:20:58.198Z,100414.91
2022-12-20T10:25:07.456Z,100410.50
2022-12-20T10:29:09.442Z,100398.28
2022-12-20T10:33:24.158Z,100396.31
2022-12-20T10:37:25.994Z,100386.00
2022-12-20T10:41:44.742Z,100398.03
2022-12-20T10:45:57.696Z,100386.97
2022-12-20T10:50:17.100Z,100368.41
2022-12-20T10:54:29.963Z,100358.69
2022-12-20T10:58:35.439Z,100366.16
2022-12-20T11:02:42.603Z,100357.50
2022-12-20T11:06:45.373Z,100341.50
2022-12-20T11:10:47.417Z,100331.25
2022-12-20T11:14:49.419Z,100332.28
2022-12-20T11:19:30.389Z,100316.38
2022-12-20T11:23:58.199Z,100319.50
2022-12-20T11:28:14.718Z,100323.34
2022-12-20T11:32:48.934Z,100319.19
2022-12-20T11:37:18.198Z,100297.16
2022-12-20T11:41:29.496Z,100292.78
2022-12-20T11:46:17.123Z,100278.22
2022-12-20T11:50:44.572Z,100286.75
2022-12-20T11:54:58.933Z,100274.72
2022-12-20T11:59:05.697Z,100291.41
2022-12-20T12:03:21.920Z,100269.47
2022-12-20T12:07:29.054Z,100285.72
2022-12-20T12:12:05.162Z,100263.91
2022-12-20T12:16:11.204Z,100263.75
2022-12-20T12:20:21.957Z,100259.94
2022-12-20T12:24:36.008Z,100237.50
2022-12-20T12:28:40.238Z,100228.88
2022-12-20T12:32:53.749Z,100205.44
2022-12-20T12:37:18.371Z,100224.03
2022-12-20T12:41:44.450Z,100218.50
2022-12-20T12:45:58.404Z,100215.50
2022-12-20T12:50:00.294Z,100208.25
2022-12-20T12:54:37.543Z,100206.91
2022-12-20T12:58:46.398Z,100229.72
2022-12-20T13:02:51.606Z,100216.91
2022-12-20T13:07:02.198Z,100205.13
2022-12-20T13:11:04.131Z,100205.19
2022-12-20T13:15:21.148Z,100209.34
2022-12-20T13:19:25.836Z,100178.78
2022-12-20T13:23:27.625Z,100168.06
2022-12-20T13:27:37.250Z,100166.44
2022-12-20T13:31:39.015Z,100162.38
2022-12-20T13:35:55.494Z,100175.75
2022-12-20T13:39:57.299Z,100162.31
2022-12-20T13:44:15.540Z,100150.44
2022-12-20T13:48:20.695Z,100143.53
2022-12-20T13:52:28.850Z,100142.41
2022-12-20T13:56:41.096Z,100161.16
2022-12-20T14:00:43.033Z,100141.28
2022-12-20T14:04:46.741Z,100143.94
2022-12-20T14:08:50.900Z,100121.94
2022-12-20T14:12:53.336Z,100126.59
2022-12-20T14:16:55.353Z,100137.28
2022-12-20T14:21:02.924Z,100146.44
2022-12-20T14:25:05.751Z,100140.97
2022-12-20T14:29:22.445Z,100115.19
2022-12-20T14:33:30.124Z,100114.94
2022-12-20T14:37:36.551Z,100127.97
2022-12-20T14:41:44.061Z,100119.00
2022-12-20T14:45:45.841Z,100081.56
2022-12-20T14:50:21.206Z,100111.22
2022-12-20T14:55:05.767Z,100081.56
2022-12-20T14:59:00.828Z,100084.91
2022-12-20T15:03:18.250Z,100080.47
2022-12-20T15:07:31.024Z,100107.41
2022-12-20T15:11:33.767Z,100093.56
2022-12-20T15:15:35.806Z,100091.56
2022-12-20T15:19:42.197Z,100088.03
2022-12-20T15:23:47.786Z,100102.34
2022-12-20T15:27:49.606Z,100096.81
2022-12-20T15:31:52.608Z,100101.59
2022-12-20T15:35:54.522Z,100082.41
2022-12-20T15:39:56.389Z,100082.25
2022-12-20T15:44:11.518Z,100078.72
2022-12-20T15:48:17.652Z,100090.94
2022-12-20T15:52:21.992Z,100094.53
2022-12-20T15:56:24.887Z,100094.78
2022-12-20T16:00:26.723Z,100093.22
2022-12-20T16:04:34.565Z,100087.91
2022-12-20T16:08:37.677Z,100086.13
2022-12-20T16:12:39.608Z,100077.28
2022-12-20T16:16:41.549Z,100084.38
2022-12-20T16:20:43.788Z,100087.25
2022-12-20T16:24:46.030Z,100080.22
2022-12-20T16:28:48.949Z,100081.81
2022-12-20T16:33:16.856Z,100091.66
2022-12-20T16:37:27.266Z,100107.03
2022-12-20T16:41:37.194Z,100101.00
2022-12-20T16:45:51.477Z,100090.75
2022-12-20T16:49:54.040Z,100096.44
2022-12-20T16:59:00.117Z,100092.75
2022-12-20T17:02:59.734Z,100094.94
2022-12-20T17:07:11.775Z,100067.53
2022-12-20T17:11:29.295Z,100070.38
2022-12-20T17:15:39.032Z,100071.25
2022-12-20T17:19:43.166Z,100075.38
2022-12-20T17:23:56.528Z,100069.88
2022-12-20T17:27:58.784Z,100088.09
2022-12-20T17:32:05.949Z,100065.63
2022-12-20T17:36:10.977Z,100057.00
2022-12-20T17:40:16.434Z,100066.09
2022-12-20T17:44:26.803Z,100062.34
2022-12-20T17:48:34.724Z,100057.28
2022-12-20T17:52:39.614Z,100063.16
2022-12-20T17:56:41.470Z,100060.63
2022-12-20T18:00:46.572Z,100054.41
2022-12-20T18:04:48.570Z,100037.66
2022-12-20T18:08:51.678Z,100038.50
2022-12-20T18:12:53.535Z,100034.38
2022-12-20T18:16:57.593Z,100020.53
2022-12-20T18:21:09.357Z,100004.91
2022-12-20T18:25:13.976Z,100015.56
2022-12-20T18:29:18.033Z,100009.41
2022-12-20T18:33:20.041Z,100013.28
2022-12-20T18:37:21.893Z,99986.94
2022-12-20T18:41:25.988Z,99999.09
2022-12-20T18:45:30.271Z,100000.91
2022-12-20T18:49:32.391Z,100010.69
2022-12-20T18:53:44.688Z,100011.25
2022-12-20T18:57:50.508Z,100005.81
2022-12-20T19:01:59.375Z,100026.34
2022-12-20T19:06:02.796Z,100016.03
2022-12-20T19:10:11.446Z,100006.53
2022-12-20T19:14:15.920Z,99994.88
2022-12-20T19:18:20.647Z,100001.38
2022-12-20T19:22:30.126Z,99984.81
2022-12-20T19:26:39.576Z,99999.81
2022-12-20T19:31:23.407Z,99980.03
2022-12-20T19:35:56.694Z,99971.50
2022-12-20T19:40:17.309Z,99968.59
2022-12-20T19:44:49.352Z,99962.00
2022-12-20T19:48:54.653Z,99965.59
2022-12-20T19:53:11.726Z,99967.13
2022-12-20T20:01:56.097Z,99965.50
2022-12-20T20:06:33.506Z,99953.78
2022-12-20T20:10:39.326Z,99981.59
2022-12-20T20:14:46.234Z,99974.88
2022-12-20T20:24:52.458Z,99959.69
2022-12-20T20:30:21.821Z,99977.47
2022-12-20T20:34:35.119Z,99965.28
2022-12-20T20:38:39.751Z,99956.06
2022-12-20T20:42:41.688Z,99950.59
2022-12-20T20:46:43.629Z,99949.44
2022-12-20T20:50:45.779Z,99956.66
2022-12-20T20:54:47.608Z,99951.50
2022-12-20T20:58:50.107Z,99944.13
2022-12-20T21:03:03.778Z,99938.06
2022-12-20T21:07:05.723Z,99964.84
2022-12-20T21:11:08.293Z,99961.44
2022-12-20T21:15:22.413Z,99953.16
2022-12-20T21:19:24.982Z,99931.88
2022-12-20T21:23:26.788Z,99940.81
2022-12-20T21:27:28.723Z,99928.75
2022-12-20T21:31:30.979Z,99939.88
2022-12-20T21:35:32.853Z,99936.50
2022-12-20T21:39:34.749Z,99943.47
2022-12-20T21:43:36.820Z,99925.97
2022-12-20T21:47:38.829Z,99935.47
2022-12-20T21:51:40.573Z,99924.25
2022-12-20T21:55:42.379Z,99945.59
2022-12-20T21:59:44.159Z,99947.59
2022-12-20T22:03:46.347Z,99950.75
2022-12-20T22:07:48.730Z,99910.59
2022-12-20T22:11:50.590Z,99924.59
2022-12-20T22:15:52.419Z,99945.31
2022-12-20T22:19:54.230Z,99932.16
2022-12-20T22:23:57.376Z,99935.75
2022-12-20T22:27:59.184Z,99937.53
2022-12-20T22:32:01.111Z,99915.44
2022-12-20T22:36:03.384Z,99917.00
2022-12-20T22:40:06.404Z,99907.66
2022-12-20T22:44:08.107Z,99908.03
2022-12-20T22:48:09.839Z,99903.59
2022-12-20T22:52:11.659Z,99908.59
2022-12-20T22:56:14.360Z,99911.06
2022-12-20T23:00:16.673Z,99934.00
2022-12-20T23:04:18.484Z,99916.78
2022-12-20T23:08:20.590Z,99902.31
2022-12-20T23:12:40.800Z,99894.03
2022-12-20T23:16:42.603Z,99903.44
2022-12-20T23:21:10.684Z,99884.97
2022-12-20T23:25:15.328Z,99891.28
2022-12-20T23:29:17.195Z,99891.59
2022-12-20T23:33:19.284Z,99875.31
2022-12-20T23:37:21.073Z,99851.56
2022-12-20T23:41:23.065Z,99860.75
2022-12-20T23:45:24.877Z,99857.13
2022-12-20T23:49:26.688Z,99856.66
2022-12-20T23:53:28.606Z,99853.53
2022-12-20T23:57:31.378Z,99838.78
